Humidity-temperature Sensor

Selected Measurement Type: Relative Humidity

 
Relative Humidity [%]     6 entries per hour
Showing data from 5/9/2018 (00:00:00 Z) to 5/2/2018 (00:01:00 Z)
Previous Next [ Day | 3-Days | 7-Days ]
First Last
Prev [ Day | 3-Days | 7-Days ] Next
First Last

Start Time:     :
End Time:     :     
Time (in GMT) :00 :50 :40 :30 :20 :10
Previous Next [ Day | 3-Days | 7-Days ]
First Last
Prev [ Day | 3-Days | 7-Days ] Next
First Last


123 => good data
MM => data is determined as missing
-- => data not received/configured
Back to Top Back to Top
5/9/2018 00:00 to 23:10 93.34 93.68 93.26 92.87 92.09 91.29
5/8/2018 23:00 to 22:10 90.98 89.48 88.87 89.20 89.26 89.32
5/8/2018 22:00 to 21:10 88.85 88.43 88.67 89.05 88.47 88.11
5/8/2018 21:00 to 20:10 88.57 87.19 88.07 88.27 88.29 88.61
5/8/2018 20:00 to 19:10 88.63 89.98 90.58 89.94 89.94 90.64
5/8/2018 19:00 to 18:10 90.32 89.76 90.80 90.30 89.52 88.79
5/8/2018 18:00 to 17:10 89.01 88.63 90.12 88.33 87.71 87.23
5/8/2018 17:00 to 16:10 85.46 87.02 87.04 89.16 88.81 87.87
5/8/2018 16:00 to 15:10 89.24 86.80 85.80 86.48 86.30 86.90
5/8/2018 15:00 to 14:10 88.13 87.63 87.02 86.68 88.43 90.30
5/8/2018 14:00 to 13:10 91.15 90.04 90.70 90.90 90.70 90.24
5/8/2018 13:00 to 12:10 91.23 91.69 92.21 91.45 90.84 89.16
5/8/2018 12:00 to 11:10 87.53 84.73 85.17 86.00 89.22 88.15
5/8/2018 11:00 to 10:10 86.22 83.89 85.54 86.76 86.98 92.61
5/8/2018 10:00 to 9:10 92.29 91.95 90.94 90.58 91.04 91.17
5/8/2018 09:00 to 8:10 92.19 91.87 93.01 93.60 94.56 94.18
5/8/2018 08:00 to 7:10 94.84 94.72 94.88 94.54 94.40 93.60
5/8/2018 07:00 to 6:10 92.63 92.79 92.33 91.00 92.11 92.79
5/8/2018 06:00 to 5:10 92.49 91.43 91.47 91.33 92.57 94.16
5/8/2018 05:00 to 4:10 93.70 93.68 92.99 92.57 93.10 94.14
5/8/2018 04:00 to 3:10 93.98 93.86 93.80 93.22 92.93 92.61
5/8/2018 03:00 to 2:10 92.55 92.25 92.25 91.53 90.94 91.73
5/8/2018 02:00 to 1:10 92.77 91.67 91.63 91.95 90.80 91.19
5/8/2018 01:00 to 0:10 91.43 91.15 90.82 90.72 89.86 89.11
5/8/2018 00:00 to 23:10 88.39 88.47 88.57 90.16 91.29 92.05
5/7/2018 23:00 to 22:10 92.23 91.41 91.89 92.13 91.91 91.37
5/7/2018 22:00 to 21:10 91.77 92.21 91.59 91.29 90.06 90.76
5/7/2018 21:00 to 20:10 90.80 90.94 90.70 91.53 91.37 92.03
5/7/2018 20:00 to 19:10 92.83 93.12 93.52 93.05 94.06 94.50
5/7/2018 19:00 to 18:10 95.39 94.36 92.79 92.05 92.45 92.29
5/7/2018 18:00 to 17:10 92.93 93.14 93.18 95.21 95.75 95.45
5/7/2018 17:00 to 16:10 95.71 95.89 95.81 95.77 95.35 94.82
5/7/2018 16:00 to 15:10 95.15 94.98 94.78 94.86 95.17 94.50
5/7/2018 15:00 to 14:10 95.35 95.15 95.93 96.81 96.67 97.22
5/7/2018 14:00 to 13:10 97.12 96.91 97.58 98.02 97.76 97.62
5/7/2018 13:00 to 12:10 97.30 96.63 96.05 95.61 95.39 95.53
5/7/2018 12:00 to 11:10 95.39 95.29 95.77 96.49 96.71 96.83
5/7/2018 11:00 to 10:10 97.04 97.20 97.18 96.67 96.75 96.69
5/7/2018 10:00 to 9:10 97.00 97.04 97.14 97.10 96.87 96.85
5/7/2018 09:00 to 8:10 96.59 96.29 96.17 96.03 95.87 95.57
5/7/2018 08:00 to 7:10 94.90 94.12 93.66 94.10 93.88 92.09
5/7/2018 07:00 to 6:10 92.39 94.80 96.11 96.23 97.10 97.36
5/7/2018 06:00 to 5:10 97.16 97.12 96.97 96.77 96.75 96.81
5/7/2018 05:00 to 4:10 97.16 96.99 96.97 96.59 95.83 96.43
5/7/2018 04:00 to 3:10 96.27 97.06 97.08 97.86 97.46 96.61
5/7/2018 03:00 to 2:10 95.65 95.99 96.05 96.27 96.31 96.11
5/7/2018 02:00 to 1:10 96.49 96.33 96.03 95.85 95.53 95.13
5/7/2018 01:00 to 0:10 95.25 94.60 95.21 95.55 95.47 95.25
5/7/2018 00:00 to 23:10 94.82 95.35 96.05 96.39 96.35 95.13
5/6/2018 23:00 to 22:10 93.52 93.56 94.70 97.48 97.92 96.63
5/6/2018 22:00 to 21:10 97.42 94.76 91.95 91.51 92.15 93.80
5/6/2018 21:00 to 20:10 94.96 95.21 94.88 94.10 92.05 92.09
5/6/2018 20:00 to 19:10 91.71 91.95 91.29 89.32 89.22 90.20
5/6/2018 19:00 to 18:10 91.19 90.42 90.46 91.02 92.07 92.27
5/6/2018 18:00 to 17:10 92.65 93.08 93.20 92.95 91.29 91.15
5/6/2018 17:00 to 16:10 90.98 92.13 92.61 91.77 91.75 92.73
5/6/2018 16:00 to 15:10 93.56 94.20 94.42 94.50 94.46 94.72
5/6/2018 15:00 to 14:10 94.58 94.82 94.38 94.44 94.74 94.16
5/6/2018 14:00 to 13:10 93.80 93.96 94.08 94.24 93.96 95.07
5/6/2018 13:00 to 12:10 94.86 95.87 95.75 95.45 95.73 95.79
5/6/2018 12:00 to 11:10 95.63 95.19 94.72 94.62 94.56 94.54
5/6/2018 11:00 to 10:10 94.10 94.96 94.66 94.42 94.72 93.74
5/6/2018 10:00 to 9:10 94.28 94.38 94.32 94.52 95.63 95.05
5/6/2018 09:00 to 8:10 95.11 95.69 95.53 95.27 95.69 96.47
5/6/2018 08:00 to 7:10 96.35 95.93 96.19 96.15 96.75 96.85
5/6/2018 07:00 to 6:10 97.10 97.36 97.82 97.96 97.94 97.78
5/6/2018 06:00 to 5:10 97.72 97.68 97.74 97.58 97.22 97.18
5/6/2018 05:00 to 4:10 97.22 97.26 97.28 97.42 97.22 97.28
5/6/2018 04:00 to 3:10 97.32 97.28 97.26 97.08 96.97 96.79
5/6/2018 03:00 to 2:10 96.61 96.55 96.23 96.03 95.85 95.71
5/6/2018 02:00 to 1:10 95.45 95.09 94.80 94.72 94.60 94.00
5/6/2018 01:00 to 0:10 93.68 93.78 93.42 93.42 92.51 91.59
5/6/2018 00:00 to 23:10 90.12 88.93 88.21 87.45 87.89 88.01
5/5/2018 23:00 to 22:10 88.39 87.65 87.15 87.25 88.31 87.29
5/5/2018 22:00 to 21:10 88.67 88.21 88.55 89.24 89.03 88.97
5/5/2018 21:00 to 20:10 88.91 89.38 90.36 90.32 90.30 90.28
5/5/2018 20:00 to 19:10 90.46 91.13 91.45 91.91 92.47 92.17
5/5/2018 19:00 to 18:10 92.37 92.45 92.61 92.91 92.97 93.96
5/5/2018 18:00 to 17:10 94.24 93.98 93.44 93.58 93.90 93.94
5/5/2018 17:00 to 16:10 93.54 93.18 92.89 92.57 92.11 92.19
5/5/2018 16:00 to 15:10 91.67 91.87 91.25 90.74 89.01 89.96
5/5/2018 15:00 to 14:10 90.88 89.50 88.03 87.99 88.91 89.88
5/5/2018 14:00 to 13:10 91.13 91.45 92.13 92.57 92.45 92.27
5/5/2018 13:00 to 12:10 93.34 93.56 94.56 95.65 96.17 95.95
5/5/2018 12:00 to 11:10 95.83 95.71 95.25 95.19 95.27 95.37
5/5/2018 11:00 to 10:10 94.94 95.23 95.17 95.75 95.37 95.23
5/5/2018 10:00 to 9:10 94.72 95.15 95.51 94.82 95.00 95.75
5/5/2018 09:00 to 8:10 95.47 95.29 95.13 95.02 95.45 95.33
5/5/2018 08:00 to 7:10 95.39 95.47 95.05 95.21 94.84 94.88
5/5/2018 07:00 to 6:10 95.31 95.05 94.94 94.60 94.52 94.52
5/5/2018 06:00 to 5:10 94.16 93.96 93.94 93.66 93.54 93.48
5/5/2018 05:00 to 4:10 93.12 92.75 92.81 92.57 93.01 92.95
5/5/2018 04:00 to 3:10 92.39 92.43 92.25 91.95 92.25 92.23
5/5/2018 03:00 to 2:10 92.01 91.93 91.45 91.61 91.65 91.51
5/5/2018 02:00 to 1:10 91.37 91.71 90.94 91.25 91.25 90.86
5/5/2018 01:00 to 0:10 90.38 90.36 90.06 90.36 90.26 89.64
5/5/2018 00:00 to 23:10 87.71 87.33 86.88 86.88 86.40 86.94
5/4/2018 23:00 to 22:10 86.92 87.45 87.17 87.57 87.21 87.51
5/4/2018 22:00 to 21:10 89.68 90.34 90.66 90.16 89.18 89.52
5/4/2018 21:00 to 20:10 90.38 90.24 90.62 90.72 91.08 90.52
5/4/2018 20:00 to 19:10 91.31 92.25 91.85 92.21 91.77 91.75
5/4/2018 19:00 to 18:10 -- -- -- -- -- --
5/4/2018 18:00 to 17:10 92.55 92.63 92.65 91.75 91.71 89.88
5/4/2018 17:00 to 16:10 90.98 92.63 93.01 93.60 94.00 93.78
5/4/2018 16:00 to 15:10 93.22 92.95 93.28 93.08 93.48 93.58
5/4/2018 15:00 to 14:10 93.58 94.04 93.32 93.28 93.46 93.22
5/4/2018 14:00 to 13:10 92.97 93.28 92.63 93.08 92.93 92.89
5/4/2018 13:00 to 12:10 92.87 94.22 95.47 96.31 96.59 96.61
5/4/2018 12:00 to 11:10 96.55 96.49 96.37 96.67 96.83 96.25
5/4/2018 11:00 to 10:10 96.17 95.83 95.95 96.15 96.19 96.19
5/4/2018 10:00 to 9:10 96.05 95.75 96.01 95.83 95.75 95.73
5/4/2018 09:00 to 8:10 96.01 95.81 95.69 95.59 95.81 95.71
5/4/2018 08:00 to 7:10 95.31 95.33 95.63 95.41 95.67 95.37
5/4/2018 07:00 to 6:10 95.19 94.60 94.94 95.05 95.13 95.29
5/4/2018 06:00 to 5:10 95.09 95.21 95.13 95.21 94.80 94.38
5/4/2018 05:00 to 4:10 94.04 94.02 93.56 93.92 93.68 93.34
5/4/2018 04:00 to 3:10 92.79 93.38 93.26 92.71 93.05 93.01
5/4/2018 03:00 to 2:10 93.42 93.40 92.97 92.67 92.55 92.47
5/4/2018 02:00 to 1:10 92.41 92.05 92.17 91.67 92.41 92.43
5/4/2018 01:00 to 0:10 91.85 91.55 91.23 91.51 91.06 90.88
5/4/2018 00:00 to 23:10 90.26 90.04 89.96 88.73 86.58 88.05
5/3/2018 23:00 to 22:10 88.17 87.23 88.05 88.67 88.65 88.53
5/3/2018 22:00 to 21:10 89.52 88.85 89.74 89.46 89.90 89.86
5/3/2018 21:00 to 20:10 89.74 89.24 89.92 90.62 91.17 91.73
5/3/2018 20:00 to 19:10 90.74 88.51 88.21 88.75 88.17 90.44
5/3/2018 19:00 to 18:10 -- -- -- -- -- --
5/3/2018 18:00 to 17:10 91.99 92.03 92.07 92.07 91.95 91.63
5/3/2018 17:00 to 16:10 91.73 91.59 91.37 90.94 91.67 91.71
5/3/2018 16:00 to 15:10 91.23 90.40 89.48 89.46 90.56 90.54
5/3/2018 15:00 to 14:10 90.18 90.04 90.58 91.79 91.99 92.15
5/3/2018 14:00 to 13:10 92.85 92.59 92.45 92.03 91.75 92.57
5/3/2018 13:00 to 12:10 93.42 93.88 94.80 95.31 95.49 95.47
5/3/2018 12:00 to 11:10 95.11 95.11 94.70 94.22 94.34 94.44
5/3/2018 11:00 to 10:10 94.22 94.66 94.68 94.72 94.68 94.32
5/3/2018 10:00 to 9:10 94.20 94.34 94.26 94.66 94.58 94.42
5/3/2018 09:00 to 8:10 94.22 94.20 94.30 94.20 95.15 95.27
5/3/2018 08:00 to 7:10 94.80 95.02 95.09 95.49 95.61 95.61
5/3/2018 07:00 to 6:10 95.03 94.88 94.74 95.41 95.73 95.63
5/3/2018 06:00 to 5:10 95.17 94.92 95.33 95.35 95.23 95.03
5/3/2018 05:00 to 4:10 95.29 94.74 94.88 95.11 94.84 95.13
5/3/2018 04:00 to 3:10 94.96 95.15 95.21 95.13 95.71 95.39
5/3/2018 03:00 to 2:10 95.35 95.11 95.53 95.25 95.05 95.11
5/3/2018 02:00 to 1:10 95.39 94.76 94.54 95.05 94.26 94.80
5/3/2018 01:00 to 0:10 95.17 95.23 95.31 95.39 95.03 94.72
5/3/2018 00:00 to 23:10 94.48 94.28 93.44 93.62 93.76 94.00
5/2/2018 23:00 to 22:10 93.38 93.72 93.16 93.10 92.33 91.41
5/2/2018 22:00 to 21:10 90.86 91.13 90.68 91.08 92.67 92.33
5/2/2018 21:00 to 20:10 91.81 92.07 91.37 91.57 91.11 90.90
5/2/2018 20:00 to 19:10 90.92 89.07 88.35 90.22 91.71 92.05
5/2/2018 19:00 to 18:10 92.89 93.30 93.08 93.36 93.36 93.20
5/2/2018 18:00 to 17:10 93.14 93.10 93.44 92.89 92.81 92.95
5/2/2018 17:00 to 16:10 92.33 92.55 92.89 93.58 93.30 93.03
5/2/2018 16:00 to 15:10 92.95 92.91 92.15 92.39 91.99 92.39
5/2/2018 15:00 to 14:10 92.41 92.59 93.08 92.49 92.15 92.13
5/2/2018 14:00 to 13:10 91.95 91.85 91.81 91.89 92.03 91.71
5/2/2018 13:00 to 12:10 92.51 93.68 94.22 94.66 95.37 95.11
5/2/2018 12:00 to 11:10 95.03 94.74 94.86 94.64 93.78 93.92
5/2/2018 11:00 to 10:10 93.92 94.52 93.90 94.58 94.56 94.72
5/2/2018 10:00 to 9:10 94.42 95.27 95.29 96.43 96.61 96.69
5/2/2018 09:00 to 8:10 96.99 96.65 96.39 96.17 96.09 96.35
5/2/2018 08:00 to 7:10 96.37 96.11 96.05 95.87 96.01 96.25
5/2/2018 07:00 to 6:10 96.29 96.21 96.13 96.13 96.03 95.89
5/2/2018 06:00 to 5:10 95.69 95.63 95.71 95.19 95.61 95.63
5/2/2018 05:00 to 4:10 95.21 95.49 94.82 95.35 95.29 94.86
5/2/2018 04:00 to 3:10 94.40 94.42 93.96 93.82 94.56 94.60
5/2/2018 03:00 to 2:10 94.74 94.64 93.84 93.30 93.70 92.93
5/2/2018 02:00 to 1:10 92.67 92.47 92.69 92.71 92.85 92.45
5/2/2018 01:00 to 0:10 93.03 92.41 92.89 92.63 92.75 93.44